sensor_id;sensor_type;location;lat;lon;timestamp;temperature;humidity
75281;HTU21D;63874;47.230;39.620;2023-07-13T00:02:17;17.24;83.95
75281;HTU21D;63874;47.230;39.620;2023-07-13T00:04:42;17.32;83.98
75281;HTU21D;63874;47.230;39.620;2023-07-13T00:07:08;17.37;83.86
75281;HTU21D;63874;47.230;39.620;2023-07-13T00:09:34;17.43;83.81
75281;HTU21D;63874;47.230;39.620;2023-07-13T00:12:01;17.46;83.65
75281;HTU21D;63874;47.230;39.620;2023-07-13T00:14:28;17.47;83.45
75281;HTU21D;63874;47.230;39.620;2023-07-13T00:16:54;17.45;83.24
75281;HTU21D;63874;47.230;39.620;2023-07-13T00:19:21;17.49;83.07
75281;HTU21D;63874;47.230;39.620;2023-07-13T00:21:47;17.51;83.00
75281;HTU21D;63874;47.230;39.620;2023-07-13T00:24:15;17.49;82.91
75281;HTU21D;63874;47.230;39.620;2023-07-13T00:26:44;17.49;82.67
75281;HTU21D;63874;47.230;39.620;2023-07-13T00:29:12;17.46;82.62
75281;HTU21D;63874;47.230;39.620;2023-07-13T00:31:38;17.43;82.53
75281;HTU21D;63874;47.230;39.620;2023-07-13T00:34:04;17.43;82.36
75281;HTU21D;63874;47.230;39.620;2023-07-13T00:36:31;17.43;82.21
75281;HTU21D;63874;47.230;39.620;2023-07-13T00:38:57;17.40;82.05
75281;HTU21D;63874;47.230;39.620;2023-07-13T00:41:24;17.40;81.94
75281;HTU21D;63874;47.230;39.620;2023-07-13T00:43:49;17.39;81.68
75281;HTU21D;63874;47.230;39.620;2023-07-13T00:46:42;17.38;81.61
75281;HTU21D;63874;47.230;39.620;2023-07-13T00:49:11;17.35;81.66
75281;HTU21D;63874;47.230;39.620;2023-07-13T00:51:53;17.32;81.45
75281;HTU21D;63874;47.230;39.620;2023-07-13T00:54:25;17.29;81.39
75281;HTU21D;63874;47.230;39.620;2023-07-13T00:56:54;17.21;81.35
75281;HTU21D;63874;47.230;39.620;2023-07-13T00:59:21;17.18;81.28
75281;HTU21D;63874;47.230;39.620;2023-07-13T01:01:48;17.10;81.35
75281;HTU21D;63874;47.230;39.620;2023-07-13T01:04:14;17.01;81.52
75281;HTU21D;63874;47.230;39.620;2023-07-13T01:06:41;16.95;81.72
75281;HTU21D;63874;47.230;39.620;2023-07-13T01:09:10;16.87;81.84
75281;HTU21D;63874;47.230;39.620;2023-07-13T01:11:37;16.79;81.97
75281;HTU21D;63874;47.230;39.620;2023-07-13T01:14:03;16.73;82.31
75281;HTU21D;63874;47.230;39.620;2023-07-13T01:16:32;16.73;82.36
75281;HTU21D;63874;47.230;39.620;2023-07-13T01:18:59;16.74;82.35
75281;HTU21D;63874;47.230;39.620;2023-07-13T01:21:31;16.79;82.20
75281;HTU21D;63874;47.230;39.620;2023-07-13T01:23:59;16.78;82.06
75281;HTU21D;63874;47.230;39.620;2023-07-13T01:26:24;16.78;82.00
75281;HTU21D;63874;47.230;39.620;2023-07-13T01:28:50;16.80;81.91
75281;HTU21D;63874;47.230;39.620;2023-07-13T01:31:16;16.80;81.79
75281;HTU21D;63874;47.230;39.620;2023-07-13T01:33:43;16.77;81.78
75281;HTU21D;63874;47.230;39.620;2023-07-13T01:36:10;16.71;81.81
75281;HTU21D;63874;47.230;39.620;2023-07-13T01:38:37;16.64;81.87
75281;HTU21D;63874;47.230;39.620;2023-07-13T01:41:03;16.57;82.04
75281;HTU21D;63874;47.230;39.620;2023-07-13T01:43:30;16.49;82.23
75281;HTU21D;63874;47.230;39.620;2023-07-13T01:45:56;16.42;82.42
75281;HTU21D;63874;47.230;39.620;2023-07-13T01:48:22;16.36;82.63
75281;HTU21D;63874;47.230;39.620;2023-07-13T01:50:48;16.31;82.83
75281;HTU21D;63874;47.230;39.620;2023-07-13T01:53:14;16.28;82.97
75281;HTU21D;63874;47.230;39.620;2023-07-13T01:55:40;16.24;83.10
75281;HTU21D;63874;47.230;39.620;2023-07-13T01:58:06;16.22;83.34
75281;HTU21D;63874;47.230;39.620;2023-07-13T02:00:32;16.21;83.46
75281;HTU21D;63874;47.230;39.620;2023-07-13T02:02:58;16.21;83.52
75281;HTU21D;63874;47.230;39.620;2023-07-13T02:05:24;16.24;83.46
75281;HTU21D;63874;47.230;39.620;2023-07-13T02:07:51;16.26;83.29
75281;HTU21D;63874;47.230;39.620;2023-07-13T02:10:18;16.27;83.21
75281;HTU21D;63874;47.230;39.620;2023-07-13T02:12:44;16.29;83.16
75281;HTU21D;63874;47.230;39.620;2023-07-13T02:15:11;16.31;83.10
75281;HTU21D;63874;47.230;39.620;2023-07-13T02:17:37;16.32;83.05
75281;HTU21D;63874;47.230;39.620;2023-07-13T02:20:04;16.34;82.99
75281;HTU21D;63874;47.230;39.620;2023-07-13T02:22:31;16.31;83.00
75281;HTU21D;63874;47.230;39.620;2023-07-13T02:24:56;16.30;83.01
75281;HTU21D;63874;47.230;39.620;2023-07-13T02:27:22;16.30;83.04
75281;HTU21D;63874;47.230;39.620;2023-07-13T02:29:49;16.32;83.11
75281;HTU21D;63874;47.230;39.620;2023-07-13T02:32:17;16.42;82.89
75281;HTU21D;63874;47.230;39.620;2023-07-13T02:34:44;16.46;82.58
75281;HTU21D;63874;47.230;39.620;2023-07-13T02:37:10;16.51;82.29
75281;HTU21D;63874;47.230;39.620;2023-07-13T02:39:36;16.57;82.09
75281;HTU21D;63874;47.230;39.620;2023-07-13T02:42:03;16.61;81.82
75281;HTU21D;63874;47.230;39.620;2023-07-13T02:44:29;16.66;81.45
75281;HTU21D;63874;47.230;39.620;2023-07-13T02:46:55;16.73;81.03
75281;HTU21D;63874;47.230;39.620;2023-07-13T02:49:21;16.76;80.75
75281;HTU21D;63874;47.230;39.620;2023-07-13T02:51:47;16.79;80.47
75281;HTU21D;63874;47.230;39.620;2023-07-13T02:54:13;16.80;80.32
75281;HTU21D;63874;47.230;39.620;2023-07-13T02:56:41;16.84;80.13
75281;HTU21D;63874;47.230;39.620;2023-07-13T02:59:09;16.88;79.59
75281;HTU21D;63874;47.230;39.620;2023-07-13T03:01:36;16.98;79.00
75281;HTU21D;63874;47.230;39.620;2023-07-13T03:04:03;17.06;78.52
75281;HTU21D;63874;47.230;39.620;2023-07-13T03:06:33;17.14;78.34
75281;HTU21D;63874;47.230;39.620;2023-07-13T03:08:59;17.23;78.11
75281;HTU21D;63874;47.230;39.620;2023-07-13T03:11:30;17.31;78.09
75281;HTU21D;63874;47.230;39.620;2023-07-13T03:14:10;17.36;77.60
75281;HTU21D;63874;47.230;39.620;2023-07-13T03:16:37;17.44;77.08
75281;HTU21D;63874;47.230;39.620;2023-07-13T03:19:03;17.51;76.66
75281;HTU21D;63874;47.230;39.620;2023-07-13T03:21:29;17.59;76.66
75281;HTU21D;63874;47.230;39.620;2023-07-13T03:23:55;17.64;76.66
75281;HTU21D;63874;47.230;39.620;2023-07-13T03:26:21;17.74;76.40
75281;HTU21D;63874;47.230;39.620;2023-07-13T03:28:48;17.83;76.16
75281;HTU21D;63874;47.230;39.620;2023-07-13T03:31:24;17.94;76.40
75281;HTU21D;63874;47.230;39.620;2023-07-13T03:33:50;18.05;76.74
75281;HTU21D;63874;47.230;39.620;2023-07-13T03:36:20;18.13;77.02
75281;HTU21D;63874;47.230;39.620;2023-07-13T03:38:50;18.20;76.99
75281;HTU21D;63874;47.230;39.620;2023-07-13T03:41:18;18.24;77.04
75281;HTU21D;63874;47.230;39.620;2023-07-13T03:43:47;18.26;76.74
75281;HTU21D;63874;47.230;39.620;2023-07-13T03:46:16;18.28;76.82
75281;HTU21D;63874;47.230;39.620;2023-07-13T03:48:44;18.32;77.03
75281;HTU21D;63874;47.230;39.620;2023-07-13T03:51:12;18.36;77.19
75281;HTU21D;63874;47.230;39.620;2023-07-13T03:53:42;18.39;76.97
75281;HTU21D;63874;47.230;39.620;2023-07-13T03:56:10;18.41;76.85
75281;HTU21D;63874;47.230;39.620;2023-07-13T03:58:40;18.48;76.70
75281;HTU21D;63874;47.230;39.620;2023-07-13T04:01:18;18.55;76.23
75281;HTU21D;63874;47.230;39.620;2023-07-13T04:03:44;18.57;75.36
75281;HTU21D;63874;47.230;39.620;2023-07-13T04:06:21;18.61;75.06
75281;HTU21D;63874;47.230;39.620;2023-07-13T04:08:49;18.66;74.32
75281;HTU21D;63874;47.230;39.620;2023-07-13T04:11:17;18.76;73.25
75281;HTU21D;63874;47.230;39.620;2023-07-13T04:13:43;18.88;72.69
75281;HTU21D;63874;47.230;39.620;2023-07-13T04:16:09;19.00;71.43
75281;HTU21D;63874;47.230;39.620;2023-07-13T04:18:35;19.12;70.82
75281;HTU21D;63874;47.230;39.620;2023-07-13T04:21:01;19.24;70.00
75281;HTU21D;63874;47.230;39.620;2023-07-13T04:23:27;19.33;69.66
75281;HTU21D;63874;47.230;39.620;2023-07-13T04:25:53;19.44;69.16
75281;HTU21D;63874;47.230;39.620;2023-07-13T04:28:22;19.55;68.71
75281;HTU21D;63874;47.230;39.620;2023-07-13T04:30:49;19.66;67.88
75281;HTU21D;63874;47.230;39.620;2023-07-13T04:33:15;19.76;66.07
75281;HTU21D;63874;47.230;39.620;2023-07-13T04:35:45;19.87;66.04
75281;HTU21D;63874;47.230;39.620;2023-07-13T04:38:14;19.98;64.60
75281;HTU21D;63874;47.230;39.620;2023-07-13T04:40:51;20.10;63.65
75281;HTU21D;63874;47.230;39.620;2023-07-13T04:43:17;20.18;63.24
75281;HTU21D;63874;47.230;39.620;2023-07-13T04:45:43;20.26;62.55
75281;HTU21D;63874;47.230;39.620;2023-07-13T04:48:11;20.35;62.54
75281;HTU21D;63874;47.230;39.620;2023-07-13T04:50:37;20.45;62.07
75281;HTU21D;63874;47.230;39.620;2023-07-13T04:53:03;20.57;61.95
75281;HTU21D;63874;47.230;39.620;2023-07-13T04:55:29;20.65;61.02
75281;HTU21D;63874;47.230;39.620;2023-07-13T04:57:56;20.77;60.26
75281;HTU21D;63874;47.230;39.620;2023-07-13T05:00:25;20.86;59.81
75281;HTU21D;63874;47.230;39.620;2023-07-13T05:02:51;20.94;58.95
75281;HTU21D;63874;47.230;39.620;2023-07-13T05:05:17;21.03;57.93
75281;HTU21D;63874;47.230;39.620;2023-07-13T05:07:43;21.09;58.29
75281;HTU21D;63874;47.230;39.620;2023-07-13T05:10:09;21.19;58.51
75281;HTU21D;63874;47.230;39.620;2023-07-13T05:12:35;21.29;58.16
75281;HTU21D;63874;47.230;39.620;2023-07-13T05:15:02;21.38;57.64
75281;HTU21D;63874;47.230;39.620;2023-07-13T05:17:28;21.45;56.63
75281;HTU21D;63874;47.230;39.620;2023-07-13T05:19:54;21.54;56.26
75281;HTU21D;63874;47.230;39.620;2023-07-13T05:22:20;21.65;56.60
75281;HTU21D;63874;47.230;39.620;2023-07-13T05:24:46;21.79;55.90
75281;HTU21D;63874;47.230;39.620;2023-07-13T05:27:12;21.89;55.62
75281;HTU21D;63874;47.230;39.620;2023-07-13T05:29:38;21.98;55.08
75281;HTU21D;63874;47.230;39.620;2023-07-13T05:32:04;22.06;54.50
75281;HTU21D;63874;47.230;39.620;2023-07-13T05:34:30;22.16;54.48
75281;HTU21D;63874;47.230;39.620;2023-07-13T05:36:56;22.27;54.58
75281;HTU21D;63874;47.230;39.620;2023-07-13T05:39:22;22.36;53.49
75281;HTU21D;63874;47.230;39.620;2023-07-13T05:41:48;22.41;52.99
75281;HTU21D;63874;47.230;39.620;2023-07-13T05:44:14;22.44;51.08
75281;HTU21D;63874;47.230;39.620;2023-07-13T05:46:40;22.47;50.35
75281;HTU21D;63874;47.230;39.620;2023-07-13T05:49:06;22.58;50.66
75281;HTU21D;63874;47.230;39.620;2023-07-13T05:51:32;22.67;49.81
75281;HTU21D;63874;47.230;39.620;2023-07-13T05:53:58;22.72;50.16
75281;HTU21D;63874;47.230;39.620;2023-07-13T05:56:23;22.77;50.46
75281;HTU21D;63874;47.230;39.620;2023-07-13T05:58:50;22.78;50.57
75281;HTU21D;63874;47.230;39.620;2023-07-13T06:01:17;22.81;50.37
75281;HTU21D;63874;47.230;39.620;2023-07-13T06:03:43;22.85;50.25
75281;HTU21D;63874;47.230;39.620;2023-07-13T06:06:10;22.91;50.40
75281;HTU21D;63874;47.230;39.620;2023-07-13T06:08:36;22.96;50.27
75281;HTU21D;63874;47.230;39.620;2023-07-13T06:11:16;23.03;50.81
75281;HTU21D;63874;47.230;39.620;2023-07-13T06:13:43;23.11;49.66
75281;HTU21D;63874;47.230;39.620;2023-07-13T06:16:09;23.09;49.48
75281;HTU21D;63874;47.230;39.620;2023-07-13T06:18:36;23.10;49.38
75281;HTU21D;63874;47.230;39.620;2023-07-13T06:21:29;23.14;50.21
75281;HTU21D;63874;47.230;39.620;2023-07-13T06:23:55;23.17;49.88
75281;HTU21D;63874;47.230;39.620;2023-07-13T06:26:21;23.16;48.29
75281;HTU21D;63874;47.230;39.620;2023-07-13T06:28:47;23.15;48.37
75281;HTU21D;63874;47.230;39.620;2023-07-13T06:31:13;23.16;48.57
75281;HTU21D;63874;47.230;39.620;2023-07-13T06:33:40;23.21;48.37
75281;HTU21D;63874;47.230;39.620;2023-07-13T06:36:06;23.25;48.15
75281;HTU21D;63874;47.230;39.620;2023-07-13T06:38:33;23.32;47.76
75281;HTU21D;63874;47.230;39.620;2023-07-13T06:40:59;23.36;47.40
75281;HTU21D;63874;47.230;39.620;2023-07-13T06:43:25;23.40;46.86
75281;HTU21D;63874;47.230;39.620;2023-07-13T06:45:54;23.42;46.04
75281;HTU21D;63874;47.230;39.620;2023-07-13T06:48:20;23.43;46.76
75281;HTU21D;63874;47.230;39.620;2023-07-13T06:50:47;23.45;47.47
75281;HTU21D;63874;47.230;39.620;2023-07-13T06:53:13;23.46;47.77
75281;HTU21D;63874;47.230;39.620;2023-07-13T06:55:39;23.49;47.81
75281;HTU21D;63874;47.230;39.620;2023-07-13T06:58:06;23.49;47.51
75281;HTU21D;63874;47.230;39.620;2023-07-13T07:00:32;23.47;47.63
75281;HTU21D;63874;47.230;39.620;2023-07-13T07:02:58;23.49;47.57
75281;HTU21D;63874;47.230;39.620;2023-07-13T07:05:24;23.53;47.64
75281;HTU21D;63874;47.230;39.620;2023-07-13T07:07:51;23.58;47.99
75281;HTU21D;63874;47.230;39.620;2023-07-13T07:10:18;23.65;48.24
75281;HTU21D;63874;47.230;39.620;2023-07-13T07:12:47;23.71;48.51
75281;HTU21D;63874;47.230;39.620;2023-07-13T07:15:14;23.80;47.70
75281;HTU21D;63874;47.230;39.620;2023-07-13T07:17:40;23.82;47.05
75281;HTU21D;63874;47.230;39.620;2023-07-13T07:20:07;23.83;46.75
75281;HTU21D;63874;47.230;39.620;2023-07-13T07:22:33;23.81;47.11
75281;HTU21D;63874;47.230;39.620;2023-07-13T07:24:59;23.86;46.73
75281;HTU21D;63874;47.230;39.620;2023-07-13T07:27:25;23.88;46.81
75281;HTU21D;63874;47.230;39.620;2023-07-13T07:29:51;23.92;46.63
75281;HTU21D;63874;47.230;39.620;2023-07-13T07:32:18;23.96;46.59
75281;HTU21D;63874;47.230;39.620;2023-07-13T07:34:44;23.97;46.52
75281;HTU21D;63874;47.230;39.620;2023-07-13T07:37:12;23.98;46.76
75281;HTU21D;63874;47.230;39.620;2023-07-13T07:39:38;24.05;46.99
75281;HTU21D;63874;47.230;39.620;2023-07-13T07:42:04;24.18;46.78
75281;HTU21D;63874;47.230;39.620;2023-07-13T07:44:31;24.30;46.49
75281;HTU21D;63874;47.230;39.620;2023-07-13T07:46:58;24.36;46.47
75281;HTU21D;63874;47.230;39.620;2023-07-13T07:49:24;24.38;46.30
75281;HTU21D;63874;47.230;39.620;2023-07-13T07:51:50;24.35;46.76
75281;HTU21D;63874;47.230;39.620;2023-07-13T07:54:16;24.34;46.38
75281;HTU21D;63874;47.230;39.620;2023-07-13T07:56:42;24.29;46.14
75281;HTU21D;63874;47.230;39.620;2023-07-13T07:59:08;24.20;46.13
75281;HTU21D;63874;47.230;39.620;2023-07-13T08:01:36;24.12;46.09
75281;HTU21D;63874;47.230;39.620;2023-07-13T08:04:02;24.10;46.46
75281;HTU21D;63874;47.230;39.620;2023-07-13T08:06:28;24.12;46.53
75281;HTU21D;63874;47.230;39.620;2023-07-13T08:08:54;24.17;46.07
75281;HTU21D;63874;47.230;39.620;2023-07-13T08:11:21;24.25;46.08
75281;HTU21D;63874;47.230;39.620;2023-07-13T08:13:47;24.29;46.18
75281;HTU21D;63874;47.230;39.620;2023-07-13T08:16:14;24.34;46.04
75281;HTU21D;63874;47.230;39.620;2023-07-13T08:18:40;24.42;46.02
75281;HTU21D;63874;47.230;39.620;2023-07-13T08:21:07;24.49;45.73
75281;HTU21D;63874;47.230;39.620;2023-07-13T08:23:34;24.57;45.06
75281;HTU21D;63874;47.230;39.620;2023-07-13T08:26:01;24.65;44.64
75281;HTU21D;63874;47.230;39.620;2023-07-13T08:28:28;24.73;44.60
75281;HTU21D;63874;47.230;39.620;2023-07-13T08:30:54;24.80;44.52
75281;HTU21D;63874;47.230;39.620;2023-07-13T08:33:21;24.87;44.41
75281;HTU21D;63874;47.230;39.620;2023-07-13T08:35:50;24.97;44.36
75281;HTU21D;63874;47.230;39.620;2023-07-13T08:38:17;25.08;44.25
75281;HTU21D;63874;47.230;39.620;2023-07-13T08:40:44;25.19;43.29
75281;HTU21D;63874;47.230;39.620;2023-07-13T08:43:25;25.21;43.40
75281;HTU21D;63874;47.230;39.620;2023-07-13T08:48:50;25.08;43.29
75281;HTU21D;63874;47.230;39.620;2023-07-13T08:51:21;25.08;43.48
75281;HTU21D;63874;47.230;39.620;2023-07-13T08:53:50;25.10;43.49
75281;HTU21D;63874;47.230;39.620;2023-07-13T08:56:22;25.15;43.20
75281;HTU21D;63874;47.230;39.620;2023-07-13T08:58:54;25.17;43.04
75281;HTU21D;63874;47.230;39.620;2023-07-13T09:12:40;25.23;42.84
75281;HTU21D;63874;47.230;39.620;2023-07-13T09:15:28;25.35;42.81
75281;HTU21D;63874;47.230;39.620;2023-07-13T09:18:01;25.46;42.62
75281;HTU21D;63874;47.230;39.620;2023-07-13T09:20:32;25.58;42.33
75281;HTU21D;63874;47.230;39.620;2023-07-13T09:23:02;25.75;41.90
75281;HTU21D;63874;47.230;39.620;2023-07-13T09:25:34;26.51;40.56
75281;HTU21D;63874;47.230;39.620;2023-07-13T09:30:41;29.65;35.69
75281;HTU21D;63874;47.230;39.620;2023-07-13T09:33:08;31.31;32.52
75281;HTU21D;63874;47.230;39.620;2023-07-13T09:35:34;32.43;30.12
75281;HTU21D;63874;47.230;39.620;2023-07-13T09:38:17;33.51;28.74
75281;HTU21D;63874;47.230;39.620;2023-07-13T09:43:10;36.54;23.76
75281;HTU21D;63874;47.230;39.620;2023-07-13T09:45:38;37.51;22.88
75281;HTU21D;63874;47.230;39.620;2023-07-13T09:48:05;38.22;21.53
75281;HTU21D;63874;47.230;39.620;2023-07-13T09:50:32;38.60;20.51
75281;HTU21D;63874;47.230;39.620;2023-07-13T09:52:57;39.10;19.79
75281;HTU21D;63874;47.230;39.620;2023-07-13T09:55:37;39.39;19.38
75281;HTU21D;63874;47.230;39.620;2023-07-13T09:58:03;39.91;18.93
75281;HTU21D;63874;47.230;39.620;2023-07-13T10:00:30;40.32;18.29
75281;HTU21D;63874;47.230;39.620;2023-07-13T10:03:00;40.65;17.75
75281;HTU21D;63874;47.230;39.620;2023-07-13T10:05:26;41.27;17.41
75281;HTU21D;63874;47.230;39.620;2023-07-13T10:07:52;41.96;16.01
75281;HTU21D;63874;47.230;39.620;2023-07-13T10:10:21;42.19;15.93
75281;HTU21D;63874;47.230;39.620;2023-07-13T10:12:48;42.53;14.87
75281;HTU21D;63874;47.230;39.620;2023-07-13T10:15:24;42.46;14.81
75281;HTU21D;63874;47.230;39.620;2023-07-13T10:17:51;42.75;14.33
75281;HTU21D;63874;47.230;39.620;2023-07-13T10:20:17;43.36;14.14
75281;HTU21D;63874;47.230;39.620;2023-07-13T10:25:19;43.46;13.91
75281;HTU21D;63874;47.230;39.620;2023-07-13T10:27:49;43.29;13.89
75281;HTU21D;63874;47.230;39.620;2023-07-13T10:30:20;42.95;14.28
75281;HTU21D;63874;47.230;39.620;2023-07-13T10:32:48;42.41;14.33
75281;HTU21D;63874;47.230;39.620;2023-07-13T10:35:15;41.96;14.81
75281;HTU21D;63874;47.230;39.620;2023-07-13T10:40:38;42.26;14.20
75281;HTU21D;63874;47.230;39.620;2023-07-13T10:43:06;41.81;14.55
75281;HTU21D;63874;47.230;39.620;2023-07-13T10:45:34;41.83;14.45
75281;HTU21D;63874;47.230;39.620;2023-07-13T10:48:01;41.58;14.39
75281;HTU21D;63874;47.230;39.620;2023-07-13T10:50:28;41.45;14.77
75281;HTU21D;63874;47.230;39.620;2023-07-13T10:53:41;41.58;14.83
75281;HTU21D;63874;47.230;39.620;2023-07-13T10:58:14;41.55;14.90
75281;HTU21D;63874;47.230;39.620;2023-07-13T11:00:46;41.07;15.69
75281;HTU21D;63874;47.230;39.620;2023-07-13T11:03:14;41.47;15.22
75281;HTU21D;63874;47.230;39.620;2023-07-13T11:05:41;42.08;14.30
75281;HTU21D;63874;47.230;39.620;2023-07-13T11:08:19;42.55;13.54
75281;HTU21D;63874;47.230;39.620;2023-07-13T11:10:53;42.70;13.97
75281;HTU21D;63874;47.230;39.620;2023-07-13T11:13:55;43.38;13.21
75281;HTU21D;63874;47.230;39.620;2023-07-13T11:18:49;43.40;13.24
75281;HTU21D;63874;47.230;39.620;2023-07-13T11:21:19;43.06;13.18
75281;HTU21D;63874;47.230;39.620;2023-07-13T11:23:52;42.95;13.09
75281;HTU21D;63874;47.230;39.620;2023-07-13T11:29:07;44.15;12.39
75281;HTU21D;63874;47.230;39.620;2023-07-13T11:31:33;43.88;11.81
75281;HTU21D;63874;47.230;39.620;2023-07-13T11:33:59;43.77;12.22
75281;HTU21D;63874;47.230;39.620;2023-07-13T11:36:29;44.02;12.29
75281;HTU21D;63874;47.230;39.620;2023-07-13T11:41:26;44.24;11.87
75281;HTU21D;63874;47.230;39.620;2023-07-13T11:43:54;44.07;11.59
75281;HTU21D;63874;47.230;39.620;2023-07-13T11:48:46;43.77;11.33
75281;HTU21D;63874;47.230;39.620;2023-07-13T11:51:26;43.00;11.88
75281;HTU21D;63874;47.230;39.620;2023-07-13T11:53:54;42.72;12.46
75281;HTU21D;63874;47.230;39.620;2023-07-13T11:56:22;42.48;12.89
75281;HTU21D;63874;47.230;39.620;2023-07-13T11:58:49;42.19;13.22
75281;HTU21D;63874;47.230;39.620;2023-07-13T12:01:18;41.98;13.14
75281;HTU21D;63874;47.230;39.620;2023-07-13T12:03:45;41.72;13.40
75281;HTU21D;63874;47.230;39.620;2023-07-13T12:06:21;41.61;13.52
75281;HTU21D;63874;47.230;39.620;2023-07-13T12:08:48;41.98;14.07
75281;HTU21D;63874;47.230;39.620;2023-07-13T12:11:15;42.34;12.86
75281;HTU21D;63874;47.230;39.620;2023-07-13T12:13:41;42.01;12.93
75281;HTU21D;63874;47.230;39.620;2023-07-13T12:16:10;41.87;13.20
75281;HTU21D;63874;47.230;39.620;2023-07-13T12:18:36;41.94;13.00
75281;HTU21D;63874;47.230;39.620;2023-07-13T12:21:02;42.15;13.15
75281;HTU21D;63874;47.230;39.620;2023-07-13T12:23:32;42.25;13.07
75281;HTU21D;63874;47.230;39.620;2023-07-13T12:25:59;42.20;13.08
75281;HTU21D;63874;47.230;39.620;2023-07-13T12:30:58;42.84;12.81
75281;HTU21D;63874;47.230;39.620;2023-07-13T12:33:26;43.17;12.73
75281;HTU21D;63874;47.230;39.620;2023-07-13T12:35:53;43.08;12.12
75281;HTU21D;63874;47.230;39.620;2023-07-13T12:38:19;42.77;12.54
75281;HTU21D;63874;47.230;39.620;2023-07-13T12:40:51;42.77;12.62
75281;HTU21D;63874;47.230;39.620;2023-07-13T12:43:17;43.18;11.81
75281;HTU21D;63874;47.230;39.620;2023-07-13T12:48:41;43.62;11.12
75281;HTU21D;63874;47.230;39.620;2023-07-13T12:51:09;43.43;11.44
75281;HTU21D;63874;47.230;39.620;2023-07-13T12:53:35;43.48;11.54
75281;HTU21D;63874;47.230;39.620;2023-07-13T12:56:05;43.20;10.88
75281;HTU21D;63874;47.230;39.620;2023-07-13T12:58:40;42.55;11.34
75281;HTU21D;63874;47.230;39.620;2023-07-13T13:01:10;40.86;12.59
75281;HTU21D;63874;47.230;39.620;2023-07-13T13:03:52;38.75;14.66
75281;HTU21D;63874;47.230;39.620;2023-07-13T13:06:25;37.00;16.87
75281;HTU21D;63874;47.230;39.620;2023-07-13T13:08:57;35.34;18.66
75281;HTU21D;63874;47.230;39.620;2023-07-13T13:11:28;33.92;20.81
75281;HTU21D;63874;47.230;39.620;2023-07-13T13:13:54;32.82;22.34
75281;HTU21D;63874;47.230;39.620;2023-07-13T13:18:49;31.15;25.18
75281;HTU21D;63874;47.230;39.620;2023-07-13T13:21:16;30.53;26.26
75281;HTU21D;63874;47.230;39.620;2023-07-13T13:23:42;29.94;27.48
75281;HTU21D;63874;47.230;39.620;2023-07-13T13:26:14;29.51;28.19
75281;HTU21D;63874;47.230;39.620;2023-07-13T13:28:43;29.17;28.94
75281;HTU21D;63874;47.230;39.620;2023-07-13T13:31:10;28.87;29.46
75281;HTU21D;63874;47.230;39.620;2023-07-13T13:33:40;28.64;29.91
75281;HTU21D;63874;47.230;39.620;2023-07-13T13:36:22;28.39;30.51
75281;HTU21D;63874;47.230;39.620;2023-07-13T13:38:50;28.20;30.95
75281;HTU21D;63874;47.230;39.620;2023-07-13T13:41:16;28.03;31.16
75281;HTU21D;63874;47.230;39.620;2023-07-13T13:43:43;27.91;31.55
75281;HTU21D;63874;47.230;39.620;2023-07-13T13:46:15;27.83;31.57
75281;HTU21D;63874;47.230;39.620;2023-07-13T13:48:43;27.73;32.09
75281;HTU21D;63874;47.230;39.620;2023-07-13T13:51:18;27.63;32.30
75281;HTU21D;63874;47.230;39.620;2023-07-13T13:53:45;27.54;32.52
75281;HTU21D;63874;47.230;39.620;2023-07-13T13:56:12;27.39;32.73
75281;HTU21D;63874;47.230;39.620;2023-07-13T13:58:39;27.29;33.00
75281;HTU21D;63874;47.230;39.620;2023-07-13T14:01:13;27.23;33.29
75281;HTU21D;63874;47.230;39.620;2023-07-13T14:03:40;27.14;33.88
75281;HTU21D;63874;47.230;39.620;2023-07-13T14:06:09;27.09;34.06
75281;HTU21D;63874;47.230;39.620;2023-07-13T14:08:36;26.98;34.27
75281;HTU21D;63874;47.230;39.620;2023-07-13T14:11:02;26.93;34.49
75281;HTU21D;63874;47.230;39.620;2023-07-13T14:13:33;26.92;34.51
75281;HTU21D;63874;47.230;39.620;2023-07-13T14:16:12;26.89;34.80
75281;HTU21D;63874;47.230;39.620;2023-07-13T14:18:40;26.86;35.15
75281;HTU21D;63874;47.230;39.620;2023-07-13T14:21:18;26.84;35.15
75281;HTU21D;63874;47.230;39.620;2023-07-13T14:23:45;26.79;35.44
75281;HTU21D;63874;47.230;39.620;2023-07-13T14:26:15;26.72;35.73
75281;HTU21D;63874;47.230;39.620;2023-07-13T14:28:47;26.67;35.92
75281;HTU21D;63874;47.230;39.620;2023-07-13T14:31:15;26.63;36.16
75281;HTU21D;63874;47.230;39.620;2023-07-13T14:33:42;26.57;36.54
75281;HTU21D;63874;47.230;39.620;2023-07-13T14:36:26;26.56;36.66
75281;HTU21D;63874;47.230;39.620;2023-07-13T14:38:53;26.54;36.95
75281;HTU21D;63874;47.230;39.620;2023-07-13T14:41:19;26.51;37.23
75281;HTU21D;63874;47.230;39.620;2023-07-13T14:43:46;26.47;37.36
75281;HTU21D;63874;47.230;39.620;2023-07-13T14:46:34;26.41;37.28
75281;HTU21D;63874;47.230;39.620;2023-07-13T14:49:14;26.34;37.55
75281;HTU21D;63874;47.230;39.620;2023-07-13T14:51:40;26.30;37.89
75281;HTU21D;63874;47.230;39.620;2023-07-13T14:54:08;26.28;37.99
75281;HTU21D;63874;47.230;39.620;2023-07-13T14:56:36;26.23;38.21
75281;HTU21D;63874;47.230;39.620;2023-07-13T14:59:02;26.22;38.43
75281;HTU21D;63874;47.230;39.620;2023-07-13T15:01:28;26.18;38.54
75281;HTU21D;63874;47.230;39.620;2023-07-13T15:03:56;26.17;38.63
75281;HTU21D;63874;47.230;39.620;2023-07-13T15:06:23;26.11;38.68
75281;HTU21D;63874;47.230;39.620;2023-07-13T15:08:49;26.09;38.69
75281;HTU21D;63874;47.230;39.620;2023-07-13T15:11:15;26.05;38.68
75281;HTU21D;63874;47.230;39.620;2023-07-13T15:13:41;26.01;38.80
75281;HTU21D;63874;47.230;39.620;2023-07-13T15:16:23;26.02;38.77
75281;HTU21D;63874;47.230;39.620;2023-07-13T15:18:50;25.96;39.00
75281;HTU21D;63874;47.230;39.620;2023-07-13T15:21:21;25.93;39.03
75281;HTU21D;63874;47.230;39.620;2023-07-13T15:23:48;25.92;39.07
75281;HTU21D;63874;47.230;39.620;2023-07-13T15:26:15;25.88;39.06
75281;HTU21D;63874;47.230;39.620;2023-07-13T15:28:45;25.84;39.12
75281;HTU21D;63874;47.230;39.620;2023-07-13T15:31:30;25.82;39.34
75281;HTU21D;63874;47.230;39.620;2023-07-13T15:33:58;25.78;39.47
75281;HTU21D;63874;47.230;39.620;2023-07-13T15:36:26;25.76;39.59
75281;HTU21D;63874;47.230;39.620;2023-07-13T15:38:54;25.72;39.86
75281;HTU21D;63874;47.230;39.620;2023-07-13T15:41:25;25.72;40.03
75281;HTU21D;63874;47.230;39.620;2023-07-13T15:43:54;25.69;40.17
75281;HTU21D;63874;47.230;39.620;2023-07-13T15:46:22;25.67;40.22
75281;HTU21D;63874;47.230;39.620;2023-07-13T15:48:50;25.65;40.34
75281;HTU21D;63874;47.230;39.620;2023-07-13T15:51:30;25.60;40.06
75281;HTU21D;63874;47.230;39.620;2023-07-13T15:54:02;25.57;40.11
75281;HTU21D;63874;47.230;39.620;2023-07-13T15:56:34;25.51;40.06